createdAt,value
2023-05-05T00:02:12.871Z,1.00
2023-05-05T00:05:17.166Z,1.00
2023-05-05T00:08:22.210Z,1.00
2023-05-05T00:11:27.036Z,1.00
2023-05-05T00:14:31.451Z,99.90
2023-05-05T00:17:35.801Z,99.90
2023-05-05T00:20:40.304Z,99.90
2023-05-05T00:23:44.518Z,99.90
2023-05-05T00:26:49.020Z,99.90
2023-05-05T00:29:53.264Z,61.20
2023-05-05T00:32:57.603Z,1.00
2023-05-05T00:36:02.437Z,99.90
2023-05-05T00:39:07.102Z,99.90
2023-05-05T00:42:11.270Z,99.90
2023-05-05T00:45:16.854Z,90.60
2023-05-05T00:48:24.384Z,9.00
2023-05-05T00:51:29.239Z,1.00
2023-05-05T00:54:35.029Z,99.90
2023-05-05T00:57:39.718Z,99.90
2023-05-05T01:00:44.534Z,99.90
2023-05-05T01:03:48.901Z,42.40
2023-05-05T01:07:14.850Z,1.00
2023-05-05T01:10:36.182Z,99.90
2023-05-05T01:14:06.255Z,99.90
2023-05-05T01:17:19.382Z,99.90
2023-05-05T01:20:41.198Z,99.90
2023-05-05T01:24:04.353Z,1.00
2023-05-05T01:27:14.744Z,1.00
2023-05-05T01:30:43.878Z,99.90
2023-05-05T01:33:51.881Z,99.90
2023-05-05T01:37:07.515Z,99.90
2023-05-05T01:40:13.520Z,99.90
2023-05-05T01:43:22.835Z,99.90
2023-05-05T01:46:27.687Z,99.90
2023-05-05T01:49:34.232Z,99.90
2023-05-05T01:52:40.841Z,99.90
2023-05-05T01:55:47.921Z,99.90
2023-05-05T01:58:54.380Z,58.90
2023-05-05T02:02:01.604Z,19.80
2023-05-05T02:05:06.923Z,1.00
2023-05-05T02:08:12.164Z,1.00
2023-05-05T02:11:17.824Z,1.00
2023-05-05T02:14:26.472Z,1.00
2023-05-05T02:17:31.796Z,99.90
2023-05-05T02:20:39.626Z,99.90
2023-05-05T02:23:47.265Z,99.90
2023-05-05T02:26:54.073Z,99.90
2023-05-05T02:30:01.920Z,99.90
2023-05-05T02:33:10.664Z,99.90
2023-05-05T02:36:20.253Z,99.90
2023-05-05T02:39:45.063Z,99.90
2023-05-05T02:42:56.249Z,99.90
2023-05-05T02:46:06.607Z,99.90
2023-05-05T02:49:11.484Z,96.70
2023-05-05T02:52:17.518Z,69.00
2023-05-05T02:55:22.595Z,41.70
2023-05-05T02:58:37.038Z,39.60
2023-05-05T03:02:16.954Z,47.40
2023-05-05T03:05:24.108Z,35.40
2023-05-05T03:08:42.814Z,19.00
2023-05-05T03:12:00.788Z,1.00
2023-05-05T03:15:08.620Z,1.00
2023-05-05T03:18:15.538Z,1.00
2023-05-05T03:21:23.555Z,1.00
2023-05-05T03:24:28.576Z,99.90
2023-05-05T03:27:41.528Z,99.90
2023-05-05T03:30:46.949Z,99.90
2023-05-05T03:33:52.498Z,99.90
2023-05-05T03:36:59.286Z,99.90
2023-05-05T03:40:03.869Z,99.90
2023-05-05T03:43:09.129Z,99.90
2023-05-05T03:46:13.676Z,99.90
2023-05-05T03:49:19.114Z,99.90
2023-05-05T03:52:25.709Z,86.90
2023-05-05T03:55:30.470Z,1.00
2023-05-05T03:58:34.823Z,1.00
2023-05-05T04:01:39.320Z,99.90
2023-05-05T04:04:44.196Z,99.90
2023-05-05T04:07:48.828Z,99.90
2023-05-05T04:10:53.511Z,99.90
2023-05-05T04:13:58.414Z,99.90
2023-05-05T04:17:04.564Z,99.90
2023-05-05T04:20:10.006Z,21.30
2023-05-05T04:23:14.922Z,1.00
2023-05-05T04:26:19.869Z,1.00
2023-05-05T04:29:25.098Z,99.90
2023-05-05T04:32:29.415Z,99.90
2023-05-05T04:35:33.959Z,99.90
2023-05-05T04:38:38.551Z,99.90
2023-05-05T04:41:44.180Z,99.90
2023-05-05T04:44:48.628Z,99.90
2023-05-05T04:47:53.033Z,99.90
2023-05-05T04:50:57.228Z,92.70
2023-05-05T04:54:01.579Z,88.80
2023-05-05T04:57:06.296Z,41.80
2023-05-05T05:00:11.355Z,11.40
2023-05-05T05:03:15.531Z,1.00
2023-05-05T05:06:19.880Z,1.00
2023-05-05T05:09:24.171Z,1.00
2023-05-05T05:12:28.592Z,1.00
2023-05-05T05:15:32.978Z,99.90
2023-05-05T05:18:37.328Z,99.90
2023-05-05T05:21:41.569Z,99.90
2023-05-05T05:24:45.777Z,99.90
2023-05-05T05:28:02.206Z,99.90
2023-05-05T05:31:13.310Z,99.90
2023-05-05T05:34:18.317Z,99.90
2023-05-05T05:37:23.270Z,99.90
2023-05-05T05:40:27.615Z,99.90
2023-05-05T05:43:32.897Z,99.90
2023-05-05T05:46:37.187Z,99.90
2023-05-05T05:49:41.718Z,99.90
2023-05-05T05:52:46.241Z,99.90
2023-05-05T05:55:50.702Z,99.90
2023-05-05T05:58:54.932Z,99.90
2023-05-05T06:02:01.605Z,92.40
2023-05-05T06:05:06.718Z,62.10
2023-05-05T06:08:10.878Z,29.00
2023-05-05T06:11:21.386Z,18.50
2023-05-05T06:14:26.537Z,1.00
2023-05-05T06:17:30.977Z,1.00
2023-05-05T06:20:35.225Z,1.00
2023-05-05T06:23:39.826Z,1.00
2023-05-05T06:26:45.018Z,1.00
2023-05-05T06:29:49.531Z,1.00
2023-05-05T06:32:54.307Z,1.00
2023-05-05T06:35:58.446Z,99.90
2023-05-05T06:39:02.523Z,99.90
2023-05-05T06:42:06.703Z,99.90
2023-05-05T06:45:12.650Z,99.90
2023-05-05T06:48:16.993Z,99.90
2023-05-05T06:51:22.710Z,99.90
2023-05-05T06:54:27.423Z,99.90
2023-05-05T06:57:31.809Z,99.90
2023-05-05T07:00:36.096Z,99.90
2023-05-05T07:03:40.605Z,99.90
2023-05-05T07:06:45.151Z,99.90
2023-05-05T07:09:49.540Z,99.90
2023-05-05T07:12:54.882Z,99.90
2023-05-05T07:15:59.936Z,99.90
2023-05-05T07:19:07.445Z,99.90
2023-05-05T07:22:12.133Z,99.90
2023-05-05T07:25:16.569Z,99.90
2023-05-05T07:28:22.396Z,99.90
2023-05-05T07:31:26.861Z,99.90
2023-05-05T07:34:34.179Z,99.90
2023-05-05T07:37:38.630Z,99.90
2023-05-05T07:40:43.233Z,99.90
2023-05-05T07:43:47.689Z,99.90
2023-05-05T07:46:51.944Z,99.90
2023-05-05T07:49:56.856Z,99.90
2023-05-05T07:53:10.592Z,99.90
2023-05-05T07:56:19.333Z,99.90
2023-05-05T07:59:25.996Z,99.90
2023-05-05T08:02:30.637Z,99.90
2023-05-05T08:05:35.277Z,99.90
2023-05-05T08:08:39.835Z,99.90
2023-05-05T08:11:44.001Z,99.90
2023-05-05T08:14:48.342Z,99.90
2023-05-05T08:17:53.257Z,99.90
2023-05-05T08:20:57.882Z,99.90
2023-05-05T08:24:02.485Z,99.90
2023-05-05T08:27:06.856Z,99.90
2023-05-05T08:30:11.985Z,99.90
2023-05-05T08:33:16.724Z,99.90
2023-05-05T08:36:21.138Z,99.90
2023-05-05T08:39:25.473Z,99.90
2023-05-05T08:42:37.852Z,99.90
2023-05-05T08:45:44.542Z,99.90
2023-05-05T08:48:51.689Z,99.90
2023-05-05T08:52:01.305Z,99.90
2023-05-05T08:55:27.165Z,99.90
2023-05-05T08:58:31.788Z,99.90
2023-05-05T09:01:36.446Z,99.90
2023-05-05T09:04:41.239Z,99.90
2023-05-05T09:07:47.125Z,99.90
2023-05-05T09:10:51.821Z,99.90
2023-05-05T09:13:56.698Z,99.90
2023-05-05T09:17:03.218Z,99.90
2023-05-05T09:20:09.774Z,99.90
2023-05-05T09:23:16.138Z,99.90
2023-05-05T09:26:20.996Z,99.90
2023-05-05T09:29:26.019Z,99.90
2023-05-05T09:32:30.650Z,99.90
2023-05-05T09:36:07.634Z,99.90
2023-05-05T09:39:12.123Z,99.90
2023-05-05T09:42:19.657Z,99.90
2023-05-05T09:45:25.598Z,99.90
2023-05-05T09:48:32.056Z,99.90
2023-05-05T09:51:36.646Z,99.90
2023-05-05T09:54:42.078Z,99.90
2023-05-05T09:57:48.538Z,99.90
2023-05-05T10:00:54.592Z,99.90
2023-05-05T10:03:58.663Z,99.90
2023-05-05T10:07:03.752Z,99.90
2023-05-05T10:10:13.298Z,99.90
2023-05-05T10:13:20.339Z,99.90
2023-05-05T10:16:25.922Z,99.90
2023-05-05T10:19:35.073Z,99.90
2023-05-05T10:22:43.610Z,99.90
2023-05-05T10:25:54.744Z,99.90
2023-05-05T10:29:04.041Z,99.90
2023-05-05T10:35:35.599Z,99.90
2023-05-05T10:38:41.670Z,99.90
2023-05-05T10:41:47.367Z,99.90
2023-05-05T10:44:51.753Z,99.90
2023-05-05T10:47:59.190Z,99.90
2023-05-05T10:51:31.009Z,99.90
2023-05-05T10:54:48.230Z,99.90
2023-05-05T10:57:53.691Z,99.90
2023-05-05T11:00:58.246Z,99.90
2023-05-05T11:04:22.534Z,99.90
2023-05-05T11:07:27.460Z,99.90
2023-05-05T11:10:44.735Z,99.90
2023-05-05T11:14:22.317Z,99.90
2023-05-05T11:17:56.508Z,99.90
2023-05-05T11:21:04.248Z,99.90
2023-05-05T11:24:29.023Z,99.90
2023-05-05T11:28:14.544Z,99.90
2023-05-05T11:31:20.061Z,99.90
2023-05-05T11:34:27.938Z,99.90
2023-05-05T11:37:32.533Z,99.90
2023-05-05T11:40:41.318Z,99.90
2023-05-05T11:43:46.200Z,99.90
2023-05-05T11:46:56.348Z,99.90
2023-05-05T11:50:18.872Z,99.90
2023-05-05T11:53:23.368Z,99.90
2023-05-05T11:56:27.747Z,99.90
2023-05-05T11:59:32.253Z,99.90
2023-05-05T12:02:37.144Z,99.90
2023-05-05T12:05:41.890Z,99.90
2023-05-05T12:08:46.335Z,99.90
2023-05-05T12:11:55.150Z,99.90
2023-05-05T12:14:59.252Z,99.90
2023-05-05T12:18:05.870Z,99.90
2023-05-05T12:21:28.742Z,99.90
2023-05-05T12:24:33.182Z,99.90
2023-05-05T12:27:38.483Z,99.90
2023-05-05T12:30:42.648Z,99.90
2023-05-05T12:33:48.414Z,99.90
2023-05-05T12:36:53.136Z,99.90
2023-05-05T12:39:57.473Z,99.90
2023-05-05T12:43:02.906Z,99.90
2023-05-05T12:46:12.259Z,99.90
2023-05-05T12:49:17.545Z,99.90
2023-05-05T12:52:22.176Z,99.90
2023-05-05T12:55:39.959Z,99.90
2023-05-05T12:58:50.991Z,99.90
2023-05-05T13:01:57.309Z,99.90
2023-05-05T13:05:02.140Z,99.90
2023-05-05T13:08:06.775Z,99.90
2023-05-05T13:11:10.998Z,99.90
2023-05-05T13:14:15.636Z,99.90
2023-05-05T13:17:20.122Z,99.90
2023-05-05T13:20:24.494Z,99.90
2023-05-05T13:23:28.854Z,99.90
2023-05-05T13:26:33.325Z,99.90
2023-05-05T13:29:37.938Z,99.90
2023-05-05T13:32:42.516Z,99.90
2023-05-05T13:35:47.078Z,99.90
2023-05-05T13:38:51.480Z,99.90
2023-05-05T13:41:55.861Z,99.90
2023-05-05T13:45:00.236Z,99.90
2023-05-05T13:48:05.108Z,99.90
2023-05-05T13:51:09.833Z,99.90
2023-05-05T13:54:14.409Z,99.90
2023-05-05T13:57:18.498Z,99.90
2023-05-05T14:00:22.971Z,99.90
2023-05-05T14:03:27.587Z,99.90
2023-05-05T14:06:32.617Z,99.90
2023-05-05T14:09:37.172Z,99.90
2023-05-05T14:12:41.553Z,99.90
2023-05-05T14:15:46.446Z,99.90
2023-05-05T14:18:50.781Z,99.90
2023-05-05T14:21:55.484Z,99.90
2023-05-05T14:24:59.504Z,99.90
2023-05-05T14:28:03.937Z,99.90
2023-05-05T14:31:07.994Z,99.90
2023-05-05T14:34:12.288Z,99.90
2023-05-05T14:37:17.921Z,99.90
2023-05-05T14:40:22.098Z,99.90
2023-05-05T14:43:26.769Z,99.90
2023-05-05T14:46:31.640Z,99.90
2023-05-05T14:49:36.239Z,99.90
2023-05-05T14:52:40.627Z,99.90
2023-05-05T14:55:45.159Z,99.90
2023-05-05T14:58:49.783Z,99.90
2023-05-05T15:01:53.717Z,99.90
2023-05-05T15:04:57.936Z,99.90
2023-05-05T15:08:02.466Z,99.90
2023-05-05T15:11:07.121Z,99.90
2023-05-05T15:14:11.515Z,99.90
2023-05-05T15:17:15.914Z,99.90
2023-05-05T15:20:20.540Z,99.90
2023-05-05T15:23:24.975Z,99.90
2023-05-05T15:26:29.664Z,99.90
2023-05-05T15:29:34.575Z,99.90
2023-05-05T15:32:38.748Z,99.90
2023-05-05T15:35:43.192Z,99.90
2023-05-05T15:38:47.317Z,99.90
2023-05-05T15:41:52.002Z,99.90
2023-05-05T15:44:56.361Z,99.90
2023-05-05T15:48:00.548Z,99.90
2023-05-05T15:51:04.871Z,99.90
2023-05-05T15:54:09.419Z,99.90
2023-05-05T15:57:14.033Z,99.90
2023-05-05T16:00:18.726Z,99.90
2023-05-05T16:03:23.194Z,99.90
2023-05-05T16:06:27.896Z,99.90
2023-05-05T16:09:32.040Z,99.90
2023-05-05T16:12:36.689Z,99.90
2023-05-05T16:15:41.167Z,99.90
2023-05-05T16:18:45.500Z,99.90
2023-05-05T16:21:49.723Z,99.90
2023-05-05T16:24:54.202Z,99.90
2023-05-05T16:28:00.144Z,99.90
2023-05-05T16:31:04.835Z,99.90
2023-05-05T16:34:09.176Z,99.90
2023-05-05T16:37:13.334Z,99.90
2023-05-05T16:40:17.703Z,99.90
2023-05-05T16:43:21.921Z,99.90
2023-05-05T16:46:26.383Z,99.90
2023-05-05T16:49:30.690Z,99.90
2023-05-05T16:52:35.278Z,1.00
2023-05-05T16:55:39.219Z,1.00
2023-05-05T16:58:43.666Z,1.00
2023-05-05T17:01:48.123Z,1.00
2023-05-05T17:04:52.716Z,1.00
2023-05-05T17:07:56.924Z,1.00
2023-05-05T17:11:01.112Z,1.00
2023-05-05T17:14:05.481Z,1.00
2023-05-05T17:17:09.954Z,1.00
2023-05-05T17:20:14.444Z,1.00
2023-05-05T17:23:21.040Z,99.90
2023-05-05T17:26:25.140Z,99.90
2023-05-05T17:29:29.557Z,99.90
2023-05-05T17:32:34.030Z,99.90
2023-05-05T17:35:38.930Z,99.90
2023-05-05T17:38:43.429Z,99.90
2023-05-05T17:41:47.678Z,99.90
2023-05-05T17:44:51.936Z,99.90
2023-05-05T17:47:56.426Z,99.90
2023-05-05T17:51:00.865Z,99.90
2023-05-05T17:54:05.359Z,99.90
2023-05-05T17:57:09.683Z,99.90
2023-05-05T18:00:14.342Z,99.90
2023-05-05T18:03:18.906Z,1.00
2023-05-05T18:06:23.741Z,1.00
2023-05-05T18:09:28.081Z,1.00
2023-05-05T18:12:32.523Z,1.00
2023-05-05T18:15:36.876Z,1.00
2023-05-05T18:18:41.664Z,1.00
2023-05-05T18:21:46.420Z,99.90
2023-05-05T18:24:51.095Z,99.90
2023-05-05T18:27:55.717Z,99.90
2023-05-05T18:31:00.124Z,1.00
2023-05-05T18:34:04.283Z,1.00
2023-05-05T18:37:08.806Z,1.00
2023-05-05T18:40:13.509Z,1.00
2023-05-05T18:43:18.094Z,1.00
2023-05-05T18:46:22.513Z,1.00
2023-05-05T18:49:29.505Z,1.00
2023-05-05T18:52:35.281Z,1.00
2023-05-05T18:55:39.531Z,1.00
2023-05-05T18:58:44.093Z,1.00
2023-05-05T19:01:48.372Z,1.00
2023-05-05T19:04:52.575Z,1.00
2023-05-05T19:07:56.915Z,1.00
2023-05-05T19:11:01.440Z,1.00
2023-05-05T19:14:05.867Z,1.00
2023-05-05T19:17:10.136Z,1.00
2023-05-05T19:20:14.496Z,1.00
2023-05-05T19:23:19.048Z,9.40
2023-05-05T19:26:24.907Z,1.00
2023-05-05T19:29:32.005Z,13.50
2023-05-05T19:32:36.874Z,17.10
2023-05-05T19:35:42.192Z,14.20
2023-05-05T19:38:46.853Z,48.10
2023-05-05T19:41:53.007Z,40.50
2023-05-05T19:44:57.964Z,30.10
2023-05-05T19:48:02.570Z,35.70
2023-05-05T19:51:06.790Z,45.10
2023-05-05T19:54:11.269Z,34.20
2023-05-05T19:57:17.549Z,18.80
2023-05-05T20:00:21.861Z,13.20
2023-05-05T20:03:26.832Z,6.40
2023-05-05T20:06:33.024Z,1.00
2023-05-05T20:09:37.795Z,1.00
2023-05-05T20:12:47.928Z,1.00
2023-05-05T20:15:52.738Z,1.00
2023-05-05T20:18:57.048Z,1.00
2023-05-05T20:22:01.570Z,1.00
2023-05-05T20:25:06.932Z,20.90
2023-05-05T20:28:11.824Z,1.00
2023-05-05T20:31:16.393Z,1.00
2023-05-05T20:34:23.978Z,1.00
2023-05-05T20:37:28.432Z,1.00
2023-05-05T20:40:33.618Z,1.00
2023-05-05T20:43:38.671Z,1.00
2023-05-05T20:46:43.119Z,1.00
2023-05-05T20:49:47.424Z,1.00
2023-05-05T20:52:52.033Z,1.00
2023-05-05T20:55:56.439Z,1.00
2023-05-05T20:59:00.926Z,1.00
2023-05-05T21:02:05.400Z,7.10
2023-05-05T21:05:09.708Z,12.00
2023-05-05T21:08:14.253Z,11.40
2023-05-05T21:11:18.685Z,1.00
2023-05-05T21:14:23.660Z,1.00
2023-05-05T21:17:29.016Z,1.00
2023-05-05T21:20:33.123Z,1.00
2023-05-05T21:23:37.739Z,1.00
2023-05-05T21:26:45.609Z,1.00
2023-05-05T21:29:51.055Z,1.00
2023-05-05T21:32:55.348Z,1.00
2023-05-05T21:36:00.103Z,1.00
2023-05-05T21:39:04.312Z,1.00
2023-05-05T21:42:08.706Z,1.00
2023-05-05T21:45:13.155Z,1.00
2023-05-05T21:48:17.511Z,1.00
2023-05-05T21:51:23.409Z,1.00
2023-05-05T21:54:27.621Z,1.00
2023-05-05T21:57:32.219Z,1.00
2023-05-05T22:00:36.463Z,1.00
2023-05-05T22:03:43.486Z,1.00
2023-05-05T22:06:48.060Z,1.00
2023-05-05T22:09:55.290Z,1.00
2023-05-05T22:12:59.486Z,1.00
2023-05-05T22:16:03.809Z,1.00
2023-05-05T22:19:08.121Z,11.60
2023-05-05T22:22:12.421Z,28.30
2023-05-05T22:25:16.710Z,53.20
2023-05-05T22:28:21.567Z,66.20
2023-05-05T22:31:26.384Z,81.50
2023-05-05T22:34:30.723Z,95.30
2023-05-05T22:37:35.289Z,99.90
2023-05-05T22:40:39.801Z,99.90
2023-05-05T22:43:44.579Z,99.90
2023-05-05T22:46:48.814Z,99.90
2023-05-05T22:49:53.546Z,99.90
2023-05-05T22:52:58.231Z,99.90
2023-05-05T22:56:02.444Z,99.90
2023-05-05T22:59:06.834Z,99.90
2023-05-05T23:02:11.798Z,99.90
2023-05-05T23:05:16.028Z,99.90
2023-05-05T23:08:20.499Z,99.90
2023-05-05T23:11:26.377Z,99.90
2023-05-05T23:14:30.643Z,94.50
2023-05-05T23:17:35.084Z,1.00
2023-05-05T23:20:39.545Z,1.00
2023-05-05T23:23:43.878Z,1.00
2023-05-05T23:26:48.201Z,1.00
2023-05-05T23:29:52.837Z,1.00
2023-05-05T23:32:57.941Z,1.00
2023-05-05T23:36:02.271Z,1.00
2023-05-05T23:39:07.721Z,1.00
2023-05-05T23:42:12.066Z,1.00
2023-05-05T23:45:19.229Z,1.00
2023-05-05T23:48:24.831Z,1.00
2023-05-05T23:51:29.373Z,1.00
2023-05-05T23:54:34.022Z,1.00
2023-05-05T23:57:38.497Z,2.80
